createdAt,value
2018-06-01T00:00:29.925Z,19.21
2018-06-01T00:01:29.936Z,19.13
2018-06-01T00:02:29.907Z,19.08
2018-06-01T00:03:29.912Z,19.19
2018-06-01T00:04:29.976Z,19.16
2018-06-01T00:05:29.938Z,19.21
2018-06-01T00:06:29.946Z,19.16
2018-06-01T00:07:29.943Z,19.1
2018-06-01T00:08:29.912Z,19.1
2018-06-01T00:09:29.928Z,19.06
2018-06-01T00:10:29.930Z,19.03
2018-06-01T00:11:29.950Z,19.01
2018-06-01T00:12:29.975Z,19.01
2018-06-01T00:13:29.946Z,18.94
2018-06-01T00:14:29.947Z,18.94
2018-06-01T00:15:30.040Z,18.94
2018-06-01T00:16:29.940Z,18.97
2018-06-01T00:17:29.985Z,19.02
2018-06-01T00:18:30.038Z,19.06
2018-06-01T00:19:29.979Z,18.99
2018-06-01T00:20:29.927Z,19.02
2018-06-01T00:21:29.967Z,19.09
2018-06-01T00:22:30.113Z,19.09
2018-06-01T00:23:30.039Z,19.13
2018-06-01T00:24:29.935Z,19.16
2018-06-01T00:25:29.978Z,19.17
2018-06-01T00:26:29.939Z,19.12
2018-06-01T00:27:29.977Z,19.1
2018-06-01T00:28:29.985Z,19.19
2018-06-01T00:29:29.953Z,19.25
2018-06-01T00:30:29.948Z,19.23
2018-06-01T00:31:29.957Z,19.25
2018-06-01T00:32:30.014Z,19.26
2018-06-01T00:33:29.956Z,19.29
2018-06-01T00:34:29.975Z,19.34
2018-06-01T00:35:30.022Z,19.34
2018-06-01T00:36:29.977Z,19.34
2018-06-01T00:37:29.954Z,19.36
2018-06-01T00:38:29.993Z,19.34
2018-06-01T00:39:30.026Z,19.25
2018-06-01T00:40:30.051Z,19.19
2018-06-01T00:41:30.018Z,19.26
2018-06-01T00:42:29.977Z,19.21
2018-06-01T00:43:29.952Z,19.16
2018-06-01T00:44:29.943Z,19.12
2018-06-01T00:45:29.982Z,19.16
2018-06-01T00:46:30.085Z,19.16
2018-06-01T00:47:29.956Z,19.21
2018-06-01T00:48:29.945Z,19.19
2018-06-01T00:49:30.093Z,19.03
2018-06-01T00:50:29.954Z,19.01
2018-06-01T00:51:29.964Z,19.01
2018-06-01T00:52:29.969Z,19.03
2018-06-01T00:53:29.978Z,18.99
2018-06-01T00:54:29.963Z,18.97
2018-06-01T00:55:29.964Z,18.99
2018-06-01T00:56:29.963Z,18.92
2018-06-01T00:57:29.985Z,18.95
2018-06-01T00:58:29.973Z,18.89
2018-06-01T00:59:30.008Z,18.91
2018-06-01T01:00:30.029Z,18.88
2018-06-01T01:01:29.943Z,18.82
2018-06-01T01:02:29.968Z,18.81
2018-06-01T01:03:29.971Z,18.82
2018-06-01T01:04:29.988Z,18.82
2018-06-01T01:05:29.969Z,18.82
2018-06-01T01:06:29.989Z,18.82
2018-06-01T01:07:30.010Z,18.75
2018-06-01T01:08:29.955Z,18.72
2018-06-01T01:09:29.963Z,18.67
2018-06-01T01:10:30.009Z,18.66
2018-06-01T01:11:30.011Z,18.66
2018-06-01T01:12:30.003Z,18.63
2018-06-01T01:13:30.047Z,18.59
2018-06-01T01:14:29.981Z,18.63
2018-06-01T01:15:29.968Z,18.63
2018-06-01T01:16:29.960Z,18.63
2018-06-01T01:17:30.000Z,18.66
2018-06-01T01:18:29.962Z,18.72
2018-06-01T01:19:29.977Z,18.75
2018-06-01T01:20:30.010Z,18.8
2018-06-01T01:21:30.045Z,18.81
2018-06-01T01:22:30.001Z,18.78
2018-06-01T01:23:29.975Z,18.8
2018-06-01T01:24:30.127Z,18.85
2018-06-01T01:25:30.073Z,18.87
2018-06-01T01:26:29.985Z,18.91
2018-06-01T01:27:29.986Z,18.94
2018-06-01T01:28:29.999Z,18.97
2018-06-01T01:29:30.011Z,18.95
2018-06-01T01:30:30.016Z,19.02
2018-06-01T01:31:30.105Z,19.02
2018-06-01T01:32:29.971Z,19.05
2018-06-01T01:33:29.977Z,19.02
2018-06-01T01:34:30.021Z,18.98
2018-06-01T01:35:29.991Z,18.95
2018-06-01T01:36:29.981Z,18.91
2018-06-01T01:37:29.995Z,18.92
2018-06-01T01:38:30.020Z,18.89
2018-06-01T01:39:30.007Z,18.81
2018-06-01T01:40:29.992Z,18.85
2018-06-01T01:41:29.988Z,18.84
2018-06-01T01:42:30.129Z,18.91
2018-06-01T01:43:29.979Z,18.87
2018-06-01T01:44:30.213Z,18.81
2018-06-01T01:45:30.026Z,18.81
2018-06-01T01:46:30.008Z,18.75
2018-06-01T01:47:30.008Z,18.75
2018-06-01T01:48:29.997Z,18.8
2018-06-01T01:49:29.983Z,18.75
2018-06-01T01:50:29.984Z,18.74
2018-06-01T01:51:30.019Z,18.77
2018-06-01T01:52:30.017Z,18.82
2018-06-01T01:53:30.015Z,18.72
2018-06-01T01:54:30.003Z,18.78
2018-06-01T01:55:30.029Z,18.81
2018-06-01T01:56:29.998Z,18.82
2018-06-01T01:57:30.031Z,18.87
2018-06-01T01:58:30.042Z,18.88
2018-06-01T01:59:30.066Z,18.91
2018-06-01T02:00:30.000Z,18.91
2018-06-01T02:01:30.006Z,18.94
2018-06-01T02:02:30.179Z,18.94
2018-06-01T02:03:30.016Z,18.91
2018-06-01T02:04:30.083Z,18.8
2018-06-01T02:05:30.093Z,18.75
2018-06-01T02:06:29.992Z,18.78
2018-06-01T02:07:29.991Z,18.85
2018-06-01T02:08:30.012Z,18.87
2018-06-01T02:09:30.057Z,18.88
2018-06-01T02:10:30.381Z,18.91
2018-06-01T02:11:30.081Z,18.91
2018-06-01T02:12:30.078Z,18.94
2018-06-01T02:13:30.061Z,18.87
2018-06-01T02:14:30.060Z,18.82
2018-06-01T02:15:30.043Z,18.84
2018-06-01T02:16:30.064Z,18.82
2018-06-01T02:17:30.053Z,18.8
2018-06-01T02:18:30.061Z,18.61
2018-06-01T02:19:30.058Z,18.57
2018-06-01T02:20:30.173Z,18.56
2018-06-01T02:21:30.007Z,18.56
2018-06-01T02:22:30.012Z,18.57
2018-06-01T02:23:30.043Z,18.63
2018-06-01T02:24:30.028Z,18.66
2018-06-01T02:25:30.048Z,18.54
2018-06-01T02:26:30.044Z,18.52
2018-06-01T02:27:30.052Z,18.56
2018-06-01T02:28:30.054Z,18.56
2018-06-01T02:29:30.048Z,18.43
2018-06-01T02:30:30.065Z,18.46
2018-06-01T02:31:30.076Z,18.44
2018-06-01T02:32:30.048Z,18.46
2018-06-01T02:33:30.061Z,18.44
2018-06-01T02:34:30.058Z,18.4
2018-06-01T02:35:30.799Z,18.42
2018-06-01T02:36:30.073Z,18.44
2018-06-01T02:37:30.034Z,18.43
2018-06-01T02:38:30.059Z,18.35
2018-06-01T02:39:30.203Z,18.37
2018-06-01T02:40:30.054Z,18.33
2018-06-01T02:41:30.085Z,18.35
2018-06-01T02:42:30.052Z,18.4
2018-06-01T02:43:30.060Z,18.42
2018-06-01T02:44:30.078Z,18.4
2018-06-01T02:45:30.082Z,18.39
2018-06-01T02:46:30.079Z,18.36
2018-06-01T02:47:30.085Z,18.36
2018-06-01T02:48:30.056Z,18.36
2018-06-01T02:49:30.068Z,18.36
2018-06-01T02:50:30.062Z,18.36
2018-06-01T02:51:30.082Z,18.3
2018-06-01T02:52:30.111Z,18.35
2018-06-01T02:53:30.058Z,18.26
2018-06-01T02:54:30.070Z,18.29
2018-06-01T02:55:30.042Z,18.29
2018-06-01T02:56:30.282Z,18.32
2018-06-01T02:57:30.073Z,18.27
2018-06-01T02:58:30.062Z,18.26
2018-06-01T02:59:30.101Z,18.27
2018-06-01T03:00:30.063Z,18.25
2018-06-01T03:01:30.070Z,18.22
2018-06-01T03:02:30.190Z,18.26
2018-06-01T03:03:30.025Z,18.22
2018-06-01T03:04:30.068Z,18.17
2018-06-01T03:05:30.079Z,18.15
2018-06-01T03:06:30.048Z,18.15
2018-06-01T03:07:30.085Z,18.16
2018-06-01T03:08:30.165Z,18.06
2018-06-01T03:09:30.057Z,18.01
2018-06-01T03:10:30.037Z,18.06
2018-06-01T03:11:30.095Z,18.04
2018-06-01T03:12:30.049Z,18.04
2018-06-01T03:13:30.037Z,18.02
2018-06-01T03:14:30.053Z,18.08
2018-06-01T03:15:30.085Z,18.05
2018-06-01T03:16:30.037Z,18.06
2018-06-01T03:17:30.070Z,18.05
2018-06-01T03:18:30.049Z,18.06
2018-06-01T03:19:30.044Z,18.05
2018-06-01T03:20:30.351Z,18.02
2018-06-01T03:21:30.049Z,18.04
2018-06-01T03:22:30.075Z,18.01
2018-06-01T03:23:30.122Z,17.98
2018-06-01T03:24:30.077Z,18.01
2018-06-01T03:25:30.127Z,18.04
2018-06-01T03:26:30.066Z,18.06
2018-06-01T03:27:30.060Z,18.06
2018-06-01T03:28:30.094Z,18.11
2018-06-01T03:29:30.071Z,18.09
2018-06-01T03:30:30.276Z,18.02
2018-06-01T03:31:30.073Z,18.01
2018-06-01T03:32:30.093Z,18.02
2018-06-01T03:33:30.037Z,18.06
2018-06-01T03:34:30.044Z,18.04
2018-06-01T03:35:30.053Z,17.94
2018-06-01T03:36:30.080Z,17.99
2018-06-01T03:37:30.095Z,18.02
2018-06-01T03:38:30.113Z,17.97
2018-06-01T03:39:30.080Z,17.99
2018-06-01T03:40:30.045Z,17.99
2018-06-01T03:41:30.062Z,18.02
2018-06-01T03:42:30.092Z,18.01
2018-06-01T03:43:30.107Z,18.01
2018-06-01T03:44:30.066Z,17.99
2018-06-01T03:45:30.081Z,18.01
2018-06-01T03:46:30.078Z,17.99
2018-06-01T03:47:30.187Z,17.98
2018-06-01T03:48:30.092Z,17.95
2018-06-01T03:49:30.092Z,17.97
2018-06-01T03:50:30.086Z,17.98
2018-06-01T03:51:30.059Z,17.97
2018-06-01T03:52:30.096Z,17.98
2018-06-01T03:53:30.139Z,17.99
2018-06-01T03:54:30.147Z,18.02
2018-06-01T03:55:30.111Z,18.05
2018-06-01T03:56:30.122Z,18.02
2018-06-01T03:57:30.069Z,17.97
2018-06-01T03:58:30.245Z,17.88
2018-06-01T03:59:30.114Z,17.91
2018-06-01T04:00:30.105Z,17.91
2018-06-01T04:01:30.108Z,17.85
2018-06-01T04:02:30.075Z,17.85
2018-06-01T04:03:30.103Z,17.88
2018-06-01T04:04:30.073Z,17.92
2018-06-01T04:05:30.070Z,17.95
2018-06-01T04:06:30.158Z,17.95
2018-06-01T04:07:30.187Z,17.98
2018-06-01T04:08:30.074Z,18.01
2018-06-01T04:09:30.118Z,18.05
2018-06-01T04:10:30.225Z,18.08
2018-06-01T04:11:30.080Z,18.08
2018-06-01T04:12:30.057Z,18.08
2018-06-01T04:13:30.084Z,18.01
2018-06-01T04:14:30.129Z,18.01
2018-06-01T04:15:30.114Z,18.04
2018-06-01T04:16:30.067Z,18.05
2018-06-01T04:17:30.127Z,18.05
2018-06-01T04:18:30.119Z,18.11
2018-06-01T04:19:30.068Z,18.08
2018-06-01T04:20:30.171Z,18.09
2018-06-01T04:21:30.165Z,18.06
2018-06-01T04:22:30.093Z,18.02
2018-06-01T04:23:30.096Z,18.05
2018-06-01T04:24:30.086Z,18.09
2018-06-01T04:25:30.121Z,18.09
2018-06-01T04:26:30.134Z,18.12
2018-06-01T04:27:30.150Z,18.16
2018-06-01T04:28:30.172Z,18.16
2018-06-01T04:29:30.104Z,18.16
2018-06-01T04:30:30.130Z,18.16
2018-06-01T04:31:30.077Z,18.17
2018-06-01T04:32:30.083Z,18.17
2018-06-01T04:33:30.076Z,18.19
2018-06-01T04:34:30.099Z,18.2
2018-06-01T04:35:30.111Z,18.2
2018-06-01T04:36:30.094Z,18.16
2018-06-01T04:37:30.115Z,18.17
2018-06-01T04:38:30.145Z,18.17
2018-06-01T04:39:30.134Z,18.16
2018-06-01T04:40:30.174Z,18.2
2018-06-01T04:41:30.113Z,18.2
2018-06-01T04:42:30.120Z,18.22
2018-06-01T04:43:30.124Z,18.26
2018-06-01T04:44:30.087Z,18.19
2018-06-01T04:45:30.104Z,18.2
2018-06-01T04:46:30.160Z,18.22
2018-06-01T04:47:30.096Z,18.2
2018-06-01T04:48:30.129Z,18.19
2018-06-01T04:49:30.096Z,18.12
2018-06-01T04:50:30.123Z,18.13
2018-06-01T04:51:30.088Z,18.15
2018-06-01T04:52:30.106Z,18.17
2018-06-01T04:53:30.106Z,18.2
2018-06-01T04:54:30.113Z,18.25
2018-06-01T04:55:30.143Z,18.22
2018-06-01T04:56:30.156Z,18.26
2018-06-01T04:57:30.127Z,18.29
2018-06-01T04:58:30.093Z,18.23
2018-06-01T04:59:30.129Z,18.25
2018-06-01T05:00:30.240Z,18.27
2018-06-01T05:01:30.284Z,18.3
2018-06-01T05:02:30.139Z,18.27
2018-06-01T05:03:30.093Z,18.29
2018-06-01T05:04:30.111Z,18.33
2018-06-01T05:05:30.091Z,18.33
2018-06-01T05:06:30.124Z,18.4
2018-06-01T05:07:30.124Z,18.39
2018-06-01T05:08:30.160Z,18.39
2018-06-01T05:09:30.118Z,18.37
2018-06-01T05:10:30.105Z,18.4
2018-06-01T05:11:30.133Z,18.33
2018-06-01T05:12:30.134Z,18.32
2018-06-01T05:13:30.129Z,18.33
2018-06-01T05:14:30.149Z,18.33
2018-06-01T05:15:30.208Z,18.39
2018-06-01T05:16:30.373Z,18.37
2018-06-01T05:17:30.211Z,18.37
2018-06-01T05:18:30.098Z,18.39
2018-06-01T05:19:30.145Z,18.4
2018-06-01T05:20:30.297Z,18.47
2018-06-01T05:21:30.136Z,18.44
2018-06-01T05:22:30.119Z,18.44
2018-06-01T05:23:30.125Z,18.39
2018-06-01T05:24:30.145Z,18.43
2018-06-01T05:25:30.217Z,18.42
2018-06-01T05:26:30.179Z,18.43
2018-06-01T05:27:30.168Z,18.44
2018-06-01T05:28:30.225Z,18.47
2018-06-01T05:29:30.124Z,18.46
2018-06-01T05:30:30.181Z,18.49
2018-06-01T05:31:30.125Z,18.44
2018-06-01T05:32:30.148Z,18.47
2018-06-01T05:33:30.154Z,18.5
2018-06-01T05:34:30.235Z,18.46
2018-06-01T05:35:30.334Z,18.49
2018-06-01T05:36:30.231Z,18.53
2018-06-01T05:37:30.192Z,18.56
2018-06-01T05:38:30.155Z,18.59
2018-06-01T05:39:30.402Z,18.6
2018-06-01T05:40:30.204Z,18.53
2018-06-01T05:41:30.311Z,18.52
2018-06-01T05:42:30.202Z,18.59
2018-06-01T05:43:30.176Z,18.61
2018-06-01T05:44:30.198Z,18.59
2018-06-01T05:45:30.162Z,18.57
2018-06-01T05:46:30.142Z,18.57
2018-06-01T05:47:30.756Z,18.64
2018-06-01T05:48:30.280Z,18.66
2018-06-01T05:49:30.115Z,18.64
2018-06-01T05:50:30.114Z,18.57
2018-06-01T05:51:30.121Z,18.56
2018-06-01T05:52:30.184Z,18.59
2018-06-01T05:53:30.129Z,18.57
2018-06-01T05:54:30.319Z,18.57
2018-06-01T05:55:30.139Z,18.59
2018-06-01T05:56:30.165Z,18.66
2018-06-01T05:57:30.133Z,18.64
2018-06-01T05:58:30.180Z,18.68
2018-06-01T05:59:30.161Z,18.71
2018-06-01T06:00:30.175Z,18.71
2018-06-01T06:01:30.170Z,18.75
2018-06-01T06:02:30.148Z,18.77
2018-06-01T06:03:30.177Z,18.78
2018-06-01T06:04:30.272Z,18.82
2018-06-01T06:05:30.136Z,18.88
2018-06-01T06:06:30.169Z,18.88
2018-06-01T06:07:30.111Z,18.91
2018-06-01T06:08:30.147Z,18.95
2018-06-01T06:09:30.183Z,18.95
2018-06-01T06:10:30.144Z,18.99
2018-06-01T06:11:30.163Z,19.01
2018-06-01T06:12:30.200Z,19.02
2018-06-01T06:13:30.430Z,18.99
2018-06-01T06:14:30.161Z,19.01
2018-06-01T06:15:30.531Z,19.03
2018-06-01T06:16:30.284Z,19.05
2018-06-01T06:17:30.208Z,19.06
2018-06-01T06:18:30.197Z,19.05
2018-06-01T06:19:30.252Z,19.08
2018-06-01T06:20:30.232Z,19.13
2018-06-01T06:21:30.157Z,19.08
2018-06-01T06:22:30.218Z,19.09
2018-06-01T06:23:30.201Z,19.09
2018-06-01T06:24:30.145Z,19.1
2018-06-01T06:25:30.235Z,19.12
2018-06-01T06:26:30.156Z,19.12
2018-06-01T06:27:30.168Z,19.13
2018-06-01T06:28:30.182Z,19.15
2018-06-01T06:29:30.279Z,19.15
2018-06-01T06:30:30.150Z,19.13
2018-06-01T06:31:30.338Z,19.19
2018-06-01T06:32:30.201Z,19.17
2018-06-01T06:33:30.203Z,19.21
2018-06-01T06:34:30.331Z,19.22
2018-06-01T06:35:30.170Z,19.21
2018-06-01T06:36:30.177Z,19.16
2018-06-01T06:37:30.331Z,19.16
2018-06-01T06:38:30.247Z,19.09
2018-06-01T06:39:30.180Z,19.09
2018-06-01T06:40:30.161Z,19.13
2018-06-01T06:41:30.187Z,19.12
2018-06-01T06:42:30.145Z,19.16
2018-06-01T06:43:30.186Z,19.12
2018-06-01T06:44:30.171Z,19.1
2018-06-01T06:45:30.156Z,19.15
2018-06-01T06:46:30.279Z,19.16
2018-06-01T06:47:30.213Z,19.22
2018-06-01T06:48:30.159Z,19.19
2018-06-01T06:49:30.230Z,19.15
2018-06-01T06:50:30.173Z,19.13
2018-06-01T06:51:30.190Z,19.08
2018-06-01T06:52:30.223Z,19.09
2018-06-01T06:53:30.177Z,19.13
2018-06-01T06:54:30.236Z,19.22
2018-06-01T06:55:30.219Z,19.21
2018-06-01T06:56:30.272Z,19.3
2018-06-01T06:57:30.207Z,19.32
2018-06-01T06:58:30.171Z,19.33
2018-06-01T06:59:30.228Z,19.29
2018-06-01T07:00:30.211Z,19.26
2018-06-01T07:01:30.193Z,19.26
2018-06-01T07:02:30.165Z,19.25
2018-06-01T07:03:30.187Z,19.29
2018-06-01T07:04:31.048Z,19.29
2018-06-01T07:05:30.208Z,19.3
2018-06-01T07:06:30.183Z,19.32
2018-06-01T07:07:30.182Z,19.33
2018-06-01T07:08:30.157Z,19.39
2018-06-01T07:09:30.164Z,19.39
2018-06-01T07:10:30.187Z,19.42
2018-06-01T07:11:30.183Z,19.46
2018-06-01T07:12:30.417Z,19.49
2018-06-01T07:13:30.183Z,19.5
2018-06-01T07:14:30.173Z,19.5
2018-06-01T07:15:30.181Z,19.5
2018-06-01T07:16:30.190Z,19.5
2018-06-01T07:17:30.215Z,19.51
2018-06-01T07:18:30.237Z,19.5
2018-06-01T07:19:30.226Z,19.53
2018-06-01T07:20:30.816Z,19.57
2018-06-01T07:21:30.227Z,19.6
2018-06-01T07:22:30.715Z,19.6
2018-06-01T07:23:30.185Z,19.56
2018-06-01T07:24:30.291Z,19.58
2018-06-01T07:25:30.160Z,19.58
2018-06-01T07:26:30.278Z,19.61
2018-06-01T07:27:30.171Z,19.58
2018-06-01T07:28:30.190Z,19.58
2018-06-01T07:29:30.234Z,19.54
2018-06-01T07:30:30.202Z,19.57
2018-06-01T07:31:30.218Z,19.58
2018-06-01T07:32:30.251Z,19.53
2018-06-01T07:33:30.224Z,19.58
2018-06-01T07:34:30.287Z,19.62
2018-06-01T07:35:30.226Z,19.64
2018-06-01T07:36:30.212Z,19.64
2018-06-01T07:37:30.329Z,19.67
2018-06-01T07:38:30.243Z,19.7
2018-06-01T07:39:30.231Z,19.72
2018-06-01T07:40:30.200Z,19.81
2018-06-01T07:41:30.228Z,19.85
2018-06-01T07:42:30.258Z,19.86
2018-06-01T07:43:30.247Z,19.92
2018-06-01T07:44:30.239Z,19.92
2018-06-01T07:45:30.233Z,19.88
2018-06-01T07:46:30.204Z,19.86
2018-06-01T07:47:30.259Z,19.88
2018-06-01T07:48:30.209Z,19.91
2018-06-01T07:49:30.275Z,19.93
2018-06-01T07:50:30.313Z,19.96
2018-06-01T07:51:30.265Z,20.06
2018-06-01T07:52:30.234Z,20.09
2018-06-01T07:53:30.260Z,20.15
2018-06-01T07:54:30.519Z,20.13
2018-06-01T07:55:30.222Z,20.08
2018-06-01T07:56:30.248Z,20.08
2018-06-01T07:57:30.210Z,20.02
2018-06-01T07:58:30.243Z,20.02
2018-06-01T07:59:30.248Z,20.06
2018-06-01T08:00:30.225Z,20.09
2018-06-01T08:01:30.217Z,20.12
2018-06-01T08:02:30.205Z,20.15
2018-06-01T08:03:30.397Z,20.2
2018-06-01T08:04:30.255Z,20.22
2018-06-01T08:05:30.350Z,20.26
2018-06-01T08:06:30.265Z,20.29
2018-06-01T08:07:31.106Z,20.34
2018-06-01T08:08:30.203Z,20.29
2018-06-01T08:09:30.242Z,20.3
2018-06-01T08:10:30.230Z,20.23
2018-06-01T08:11:30.283Z,20.27
2018-06-01T08:12:30.200Z,20.29
2018-06-01T08:13:30.268Z,20.26
2018-06-01T08:14:30.262Z,20.27
2018-06-01T08:15:30.365Z,20.32
2018-06-01T08:16:30.406Z,20.36
2018-06-01T08:17:30.307Z,20.4
2018-06-01T08:18:30.253Z,20.44
2018-06-01T08:19:30.225Z,20.48
2018-06-01T08:20:31.556Z,20.48
2018-06-01T08:21:30.228Z,20.46
2018-06-01T08:22:30.218Z,20.37
2018-06-01T08:23:30.247Z,20.34
2018-06-01T08:24:30.267Z,20.34
2018-06-01T08:25:30.239Z,20.32
2018-06-01T08:26:30.299Z,20.29
2018-06-01T08:27:30.237Z,20.32
2018-06-01T08:28:30.226Z,20.3
2018-06-01T08:29:30.262Z,20.36
2018-06-01T08:30:30.380Z,20.39
2018-06-01T08:31:30.207Z,20.41
2018-06-01T08:32:30.354Z,20.43
2018-06-01T08:33:30.210Z,20.43
2018-06-01T08:34:30.240Z,20.47
2018-06-01T08:35:30.244Z,20.48
2018-06-01T08:36:30.858Z,20.5
2018-06-01T08:37:30.260Z,20.52
2018-06-01T08:38:30.279Z,20.5
2018-06-01T08:39:30.308Z,20.5
2018-06-01T08:40:30.259Z,20.47
2018-06-01T08:41:30.283Z,20.44
2018-06-01T08:42:30.228Z,20.51
2018-06-01T08:43:30.247Z,20.55
2018-06-01T08:44:30.242Z,20.6
2018-06-01T08:45:30.288Z,20.65
2018-06-01T08:46:30.410Z,20.61
2018-06-01T08:47:30.227Z,20.55
2018-06-01T08:48:30.233Z,20.57
2018-06-01T08:49:30.212Z,20.61
2018-06-01T08:50:30.264Z,20.61
2018-06-01T08:51:30.358Z,20.6
2018-06-01T08:52:30.583Z,20.58
2018-06-01T08:53:30.240Z,20.61
2018-06-01T08:54:30.392Z,20.55
2018-06-01T08:55:30.505Z,20.58
2018-06-01T08:56:30.420Z,20.6
2018-06-01T08:57:30.413Z,20.58
2018-06-01T08:58:30.275Z,20.62
2018-06-01T08:59:30.220Z,20.67
2018-06-01T09:00:30.343Z,20.67
2018-06-01T09:01:30.332Z,20.7
2018-06-01T09:02:30.487Z,20.7
2018-06-01T09:03:30.359Z,20.75
2018-06-01T09:04:30.470Z,20.78
2018-06-01T09:05:30.263Z,20.75
2018-06-01T09:06:30.382Z,20.81
2018-06-01T09:07:30.405Z,20.82
2018-06-01T09:08:30.264Z,20.87
2018-06-01T09:09:30.403Z,20.89
2018-06-01T09:10:30.283Z,20.91
2018-06-01T09:11:30.412Z,20.89
2018-06-01T09:12:30.407Z,20.87
2018-06-01T09:13:30.439Z,20.77
2018-06-01T09:14:30.303Z,20.77
2018-06-01T09:15:30.443Z,20.77
2018-06-01T09:16:30.301Z,20.81
2018-06-01T09:17:30.258Z,20.84
2018-06-01T09:18:30.457Z,20.87
2018-06-01T09:19:30.569Z,20.91
2018-06-01T09:20:30.470Z,20.92
2018-06-01T09:21:30.473Z,20.94
2018-06-01T09:22:30.478Z,20.94
2018-06-01T09:23:30.829Z,20.92
2018-06-01T09:24:30.408Z,20.98
2018-06-01T09:25:30.401Z,20.95
2018-06-01T09:26:30.411Z,20.98
2018-06-01T09:27:30.412Z,20.99
2018-06-01T09:28:30.655Z,21.01
2018-06-01T09:29:30.286Z,21.12
2018-06-01T09:30:30.363Z,21.17
2018-06-01T09:31:30.445Z,21.15
2018-06-01T09:32:30.561Z,21.09
2018-06-01T09:33:30.457Z,21.09
2018-06-01T09:34:30.791Z,21.13
2018-06-01T09:35:30.257Z,21.16
2018-06-01T09:36:30.473Z,21.2
2018-06-01T09:37:30.387Z,21.23
2018-06-01T09:38:30.303Z,21.2
2018-06-01T09:39:30.394Z,21.19
2018-06-01T09:40:30.394Z,21.2
2018-06-01T09:41:30.429Z,21.23
2018-06-01T09:42:30.523Z,21.29
2018-06-01T09:43:30.589Z,21.27
2018-06-01T09:44:30.431Z,21.29
2018-06-01T09:45:30.537Z,21.33
2018-06-01T09:46:30.446Z,21.3
2018-06-01T09:47:30.336Z,21.29
2018-06-01T09:48:30.354Z,21.32
2018-06-01T09:49:30.364Z,21.36
2018-06-01T09:50:30.469Z,21.43
2018-06-01T09:51:30.481Z,21.43
2018-06-01T09:52:30.408Z,21.34
2018-06-01T09:53:30.386Z,21.4
2018-06-01T09:54:30.391Z,21.41
2018-06-01T09:55:30.607Z,21.44
2018-06-01T09:56:30.406Z,21.44
2018-06-01T09:57:30.452Z,21.51
2018-06-01T09:58:30.262Z,21.53
2018-06-01T09:59:30.428Z,21.47
2018-06-01T10:00:30.500Z,21.4
2018-06-01T10:01:30.299Z,21.37
2018-06-01T10:02:30.483Z,21.43
2018-06-01T10:03:30.348Z,21.44
2018-06-01T10:04:30.473Z,21.49
2018-06-01T10:05:30.470Z,21.53
2018-06-01T10:06:30.477Z,21.58
2018-06-01T10:07:30.431Z,21.64
2018-06-01T10:08:30.363Z,21.75
2018-06-01T10:09:30.604Z,21.78
2018-06-01T10:10:30.282Z,21.81
2018-06-01T10:11:30.288Z,21.88
2018-06-01T10:12:30.436Z,21.94
2018-06-01T10:13:30.383Z,22.03
2018-06-01T10:14:30.344Z,22.08
2018-06-01T10:15:30.603Z,22.11
2018-06-01T10:16:30.437Z,22.09
2018-06-01T10:17:30.351Z,22.12
2018-06-01T10:18:30.450Z,22.12
2018-06-01T10:19:30.281Z,22.19
2018-06-01T10:20:30.335Z,22.19
2018-06-01T10:21:30.384Z,22.24
2018-06-01T10:22:30.419Z,22.26
2018-06-01T10:23:30.456Z,22.29
2018-06-01T10:24:30.497Z,22.24
2018-06-01T10:25:30.272Z,22.24
2018-06-01T10:26:30.405Z,22.26
2018-06-01T10:27:30.420Z,22.29
2018-06-01T10:28:30.627Z,22.31
2018-06-01T10:29:30.301Z,22.3
2018-06-01T10:30:30.445Z,22.29
2018-06-01T10:31:30.323Z,22.27
2018-06-01T10:32:30.337Z,22.3
2018-06-01T10:33:30.500Z,22.33
2018-06-01T10:34:30.471Z,22.37
2018-06-01T10:35:30.379Z,22.44
2018-06-01T10:36:30.681Z,22.5
2018-06-01T10:37:30.286Z,22.57
2018-06-01T10:38:30.295Z,22.56
2018-06-01T10:39:30.587Z,22.61
2018-06-01T10:40:30.289Z,22.6
2018-06-01T10:41:30.313Z,22.65
2018-06-01T10:42:30.524Z,22.67
2018-06-01T10:43:30.304Z,22.57
2018-06-01T10:44:30.473Z,22.56
2018-06-01T10:45:30.432Z,22.56
2018-06-01T10:46:30.454Z,22.61
2018-06-01T10:47:30.308Z,22.65
2018-06-01T10:48:30.455Z,22.67
2018-06-01T10:49:30.425Z,22.68
2018-06-01T10:50:30.314Z,22.7
2018-06-01T10:51:30.498Z,22.65
2018-06-01T10:52:30.488Z,22.68
2018-06-01T10:53:30.381Z,22.76
2018-06-01T10:54:30.556Z,22.84
2018-06-01T10:55:30.308Z,22.85
2018-06-01T10:56:30.728Z,22.81
2018-06-01T10:57:30.304Z,22.84
2018-06-01T10:58:30.331Z,22.82
2018-06-01T10:59:30.437Z,22.92
2018-06-01T11:00:30.321Z,22.98
2018-06-01T11:01:30.448Z,23.02
2018-06-01T11:02:30.456Z,23.11
2018-06-01T11:03:30.335Z,23.18
2018-06-01T11:04:30.308Z,23.27
2018-06-01T11:05:30.370Z,23.32
2018-06-01T11:06:30.334Z,23.36
2018-06-01T11:07:30.325Z,23.34
2018-06-01T11:08:30.401Z,23.43
2018-06-01T11:09:30.464Z,23.44
2018-06-01T11:10:30.324Z,23.44
2018-06-01T11:11:30.522Z,23.4
2018-06-01T11:12:30.405Z,23.43
2018-06-01T11:13:30.329Z,23.41
2018-06-01T11:14:30.678Z,23.39
2018-06-01T11:15:30.330Z,23.46
2018-06-01T11:16:30.337Z,23.5
2018-06-01T11:17:30.456Z,23.5
2018-06-01T11:18:30.454Z,23.58
2018-06-01T11:19:30.502Z,23.58
2018-06-01T11:20:30.494Z,23.62
2018-06-01T11:21:30.627Z,23.69
2018-06-01T11:22:30.369Z,23.68
2018-06-01T11:23:30.493Z,23.64
2018-06-01T11:24:32.450Z,23.54
2018-06-01T11:25:30.399Z,23.5
2018-06-01T11:26:30.408Z,23.5
2018-06-01T11:27:30.343Z,23.46
2018-06-01T11:28:30.327Z,23.46
2018-06-01T11:29:30.551Z,23.43
2018-06-01T11:30:30.433Z,23.4
2018-06-01T11:31:30.410Z,23.39
2018-06-01T11:32:30.488Z,23.41
2018-06-01T11:33:31.141Z,23.51
2018-06-01T11:34:30.370Z,23.61
2018-06-01T11:35:30.375Z,23.68
2018-06-01T11:36:30.491Z,23.87
2018-06-01T11:37:30.341Z,23.99
2018-06-01T11:38:30.451Z,24.01
2018-06-01T11:39:30.386Z,24.08
2018-06-01T11:40:30.509Z,24.15
2018-06-01T11:41:30.406Z,24.2
2018-06-01T11:42:30.338Z,24.2
2018-06-01T11:43:30.425Z,24.24
2018-06-01T11:44:30.547Z,24.21
2018-06-01T11:45:30.338Z,24.29
2018-06-01T11:46:30.383Z,24.32
2018-06-01T11:47:30.467Z,24.39
2018-06-01T11:48:30.467Z,24.32
2018-06-01T11:49:30.353Z,24.36
2018-06-01T11:50:30.479Z,24.4
2018-06-01T11:51:30.647Z,24.44
2018-06-01T11:52:30.363Z,24.42
2018-06-01T11:53:30.600Z,24.44
2018-06-01T11:54:30.366Z,24.36
2018-06-01T11:55:31.312Z,24.42
2018-06-01T11:56:30.618Z,24.47
2018-06-01T11:57:30.535Z,24.54
2018-06-01T11:58:30.395Z,24.57
2018-06-01T11:59:30.537Z,24.6
2018-06-01T12:00:30.369Z,24.65
2018-06-01T12:01:30.370Z,24.61
2018-06-01T12:02:30.359Z,24.63
2018-06-01T12:03:30.573Z,24.7
2018-06-01T12:04:30.361Z,24.75
2018-06-01T12:05:30.586Z,24.79
2018-06-01T12:06:30.373Z,24.86
2018-06-01T12:07:30.450Z,24.91
2018-06-01T12:08:30.491Z,24.94
2018-06-01T12:09:30.356Z,24.97
2018-06-01T12:10:30.367Z,24.99
2018-06-01T12:11:30.551Z,25.1
2018-06-01T12:12:30.367Z,25.13
2018-06-01T12:13:30.395Z,25.09
2018-06-01T12:14:30.352Z,25.15
2018-06-01T12:15:30.433Z,25.17
2018-06-01T12:16:30.366Z,25.13
2018-06-01T12:17:30.616Z,25.15
2018-06-01T12:18:30.361Z,25.19
2018-06-01T12:19:30.377Z,25.23
2018-06-01T12:20:30.486Z,25.25
2018-06-01T12:21:30.382Z,25.01
2018-06-01T12:22:30.351Z,24.99
2018-06-01T12:23:30.493Z,25.08
2018-06-01T12:24:30.363Z,25.06
2018-06-01T12:25:30.403Z,25.13
2018-06-01T12:26:30.415Z,25.16
2018-06-01T12:27:30.360Z,25.17
2018-06-01T12:28:30.445Z,25.26
2018-06-01T12:29:30.365Z,25.26
2018-06-01T12:30:30.546Z,25.27
2018-06-01T12:31:30.396Z,25.3
2018-06-01T12:32:30.571Z,25.37
2018-06-01T12:33:30.369Z,25.44
2018-06-01T12:34:30.399Z,25.53
2018-06-01T12:35:30.497Z,25.57
2018-06-01T12:36:30.628Z,25.6
2018-06-01T12:37:30.678Z,25.63
2018-06-01T12:38:30.686Z,25.57
2018-06-01T12:39:30.441Z,25.6
2018-06-01T12:40:30.384Z,25.53
2018-06-01T12:41:30.569Z,25.54
2018-06-01T12:42:30.413Z,25.6
2018-06-01T12:43:30.428Z,25.5
2018-06-01T12:44:30.456Z,25.54
2018-06-01T12:45:30.444Z,25.61
2018-06-01T12:46:30.379Z,25.67
2018-06-01T12:47:30.560Z,25.54
2018-06-01T12:48:30.497Z,25.58
2018-06-01T12:49:30.478Z,25.54
2018-06-01T12:50:30.608Z,25.64
2018-06-01T12:51:30.484Z,25.56
2018-06-01T12:52:30.437Z,25.63
2018-06-01T12:53:30.601Z,25.58
2018-06-01T12:54:30.508Z,25.63
2018-06-01T12:55:30.613Z,25.65